Terminal Aerodrome Forecast
Issued by NWS

Home | Current Version | Previous Version | Text Only | Print | Product List | Glossary On
Versions: 1 2 3 4 5 6 7 8 9 10 11 12 13 14 15
000
FTAK31 PAJN 191700 RRA
TAFAWG
TAF
PAWG 191741Z 1918/2018 14006KT P6SM BKN040 BKN080
     FM192100 12009KT P6SM VCSH BKN040 BKN080
     FM200000 10011KT P6SM VCSH BKN040 BKN060
     FM200600 12011G18KT P6SM -RA SCT025 OVC050
     FM200900 12013G18KT 6SM -RA BR BKN025 OVC050
      TEMPO 2010/2014 4SM -RA BR OVC025
     FM201500 12011KT 4SM -RA BR SCT012 OVC025
      AMD LTD TO CLD VIS AND WIND 2006/2015=

USA.gov is the U.S. government's official web portal to all federal, state and local government web resources and services.